Raleigh, North Carolina
Current Conditions -  °F | °C
As of 12:51 AM on Saturday 20 Dec 2014 (Local Time) from KRDU Reporting Station
Overcast Overcast  
Wind Chill: 37°   Ceiling: 17000
Heat Index: 37°   Visibility: 9mi
Dew Point: 30°   Wind: 0mph
Humidity: 76%   Direction: NA
Pressure: 30.23"   Gusts: NA
Location:  35.79°N, 78.64°W
Report Text: KRDU 200551Z 00000KT 9SM OVC170 03/M01 A3023 RMK AO2 SLP237 T00281011 10061 20022 53007
Loading
Personal Weather Stations






























Interactive Weather Map New forecast layout! Learn more

10-Day Weather Forecast

Advertisements
Track Severe Weather on mobile